Time;durP1;ratioP1;P1;durP2;ratioP2;P2;SDS_P1;SDS_P2;PMS_P1;PMS_P2;Temp;Humidity;BMP_temperature;BMP_pressure;BME280_temperature;BME280_humidity;BME280_pressure;Samples;Min_cycle;Max_cycle;Signal;HPM_P1;HPM_P2
2022/11/02 00:01:24;;;;;;;54.10;35.10;;;;;;;12.25;93.69;100380.84;124954;1312;98042;-75
2022/11/02 00:04:29;;;;;;;48.60;31.90;;;;;;;12.21;93.68;100376.23;124937;1305;98136;-75
2022/11/02 00:07:35;;;;;;;49.10;33.50;;;;;;;12.24;93.82;100378.40;124903;1305;98785;-76
2022/11/02 00:10:40;;;;;;;51.10;33.00;;;;;;;12.26;93.84;100377.66;124961;1297;98985;-75
2022/11/02 00:13:45;;;;;;;49.30;34.70;;;;;;;12.27;93.86;100374.52;124956;1295;98170;-76
2022/11/02 00:16:51;;;;;;;49.10;34.70;;;;;;;12.27;93.80;100373.73;124919;1296;98661;-75
2022/11/02 00:19:56;;;;;;;45.70;30.90;;;;;;;12.27;93.93;100376.56;124890;1309;98823;-76
2022/11/02 00:23:03;;;;;;;44.50;30.10;;;;;;;12.26;93.85;100374.63;124874;1297;97991;-74
2022/11/02 00:26:09;;;;;;;50.10;34.50;;;;;;;12.23;94.08;100374.12;124953;1309;98011;-77
2022/11/02 00:29:15;;;;;;;47.30;32.30;;;;;;;12.19;94.15;100374.69;124992;1297;98696;-77
2022/11/02 00:32:20;;;;;;;47.00;32.70;;;;;;;12.16;94.33;100380.27;124970;1319;99165;-75
2022/11/02 00:35:26;;;;;;;47.10;31.10;;;;;;;12.16;94.29;100381.04;124876;1306;98820;-75
2022/11/02 00:38:31;;;;;;;49.70;31.40;;;;;;;12.20;94.29;100384.40;124857;1296;98114;-75
2022/11/02 00:41:37;;;;;;;39.90;29.10;;;;;;;12.26;94.34;100385.40;125028;1303;99082;-76
2022/11/02 00:44:43;;;;;;;46.50;32.00;;;;;;;12.33;94.27;100378.77;125200;1303;99201;-75
2022/11/02 00:47:48;;;;;;;49.00;33.00;;;;;;;12.39;94.21;100385.91;124968;1306;98107;-75
2022/11/02 00:50:53;;;;;;;47.70;30.70;;;;;;;12.44;94.18;100388.50;124897;1298;98164;-76
2022/11/02 00:54:00;;;;;;;47.00;31.60;;;;;;;12.43;94.29;100385.75;125002;1302;98022;-75
2022/11/02 00:57:07;;;;;;;48.40;34.10;;;;;;;12.35;94.88;100381.75;124862;1297;99087;-76
2022/11/02 01:00:14;;;;;;;50.60;34.20;;;;;;;12.26;95.53;100372.73;124927;1296;98204;-77
2022/11/02 01:03:19;;;;;;;49.30;34.50;;;;;;;12.16;96.18;100371.89;124995;1306;99061;-74
2022/11/02 01:06:25;;;;;;;62.20;34.20;;;;;;;12.14;96.04;100378.77;124924;1296;98049;-74
2022/11/02 01:09:32;;;;;;;48.50;32.30;;;;;;;12.12;96.70;100379.35;124940;1296;98083;-74
2022/11/02 01:12:39;;;;;;;57.80;35.80;;;;;;;12.10;96.75;100375.92;124776;1299;98049;-75
2022/11/02 01:15:45;;;;;;;54.80;35.50;;;;;;;12.09;97.01;100378.34;124906;1296;98107;-75
2022/11/02 01:18:53;;;;;;;56.60;32.50;;;;;;;12.09;96.91;100385.11;125012;1306;98075;-74
2022/11/02 01:21:58;;;;;;;48.10;30.50;;;;;;;12.14;96.43;100391.39;125165;1295;99177;-75
2022/11/02 01:25:04;;;;;;;49.40;31.00;;;;;;;12.22;96.41;100391.89;124965;1298;99191;-75
2022/11/02 01:28:09;;;;;;;51.90;34.70;;;;;;;12.30;96.12;100389.42;124996;1302;98008;-73
2022/11/02 01:31:15;;;;;;;49.10;33.20;;;;;;;12.38;96.19;100390.87;124860;1305;98323;-74
2022/11/02 01:34:21;;;;;;;47.60;31.00;;;;;;;12.38;95.91;100386.35;125049;1295;98160;-74
2022/11/02 01:37:26;;;;;;;47.50;28.50;;;;;;;12.42;95.89;100378.52;124949;1296;98135;-74
2022/11/02 01:40:37;;;;;;;53.80;33.10;;;;;;;12.45;96.02;100376.37;125025;1302;98788;-75
2022/11/02 01:43:45;;;;;;;52.60;32.40;;;;;;;12.46;95.95;100374.00;124854;1300;98033;-74
2022/11/02 01:46:53;;;;;;;49.70;32.10;;;;;;;12.46;96.13;100378.21;124911;1309;98059;-73
2022/11/02 01:50:04;;;;;;;56.70;34.30;;;;;;;12.47;96.10;100382.99;124716;1306;98117;-74
2022/11/02 01:53:10;;;;;;;44.90;28.40;;;;;;;12.51;96.07;100385.75;124902;1305;98013;-73
2022/11/02 01:56:19;;;;;;;51.60;33.20;;;;;;;12.57;95.94;100391.33;124914;1302;98686;-75
2022/11/02 01:59:32;;;;;;;52.90;32.80;;;;;;;12.63;95.88;100389.98;124859;1298;99190;-76
2022/11/02 02:02:43;;;;;;;52.60;32.90;;;;;;;12.67;95.77;100390.02;124937;1303;99120;-76
2022/11/02 02:05:53;;;;;;;49.00;31.10;;;;;;;12.68;95.76;100393.64;124986;1302;98990;-75
2022/11/02 02:09:03;;;;;;;48.10;30.00;;;;;;;12.69;95.86;100398.12;124870;1302;99302;-77
2022/11/02 02:12:09;;;;;;;47.60;31.40;;;;;;;12.70;95.95;100396.45;125023;1296;98139;-75
2022/11/02 02:15:17;;;;;;;51.40;31.90;;;;;;;12.70;95.82;100395.85;125025;1296;98048;-76
2022/11/02 02:18:28;;;;;;;47.10;30.90;;;;;;;12.71;96.01;100395.75;124942;1303;98014;-76
2022/11/02 02:21:45;;;;;;;49.20;30.10;;;;;;;12.73;96.12;100395.75;124896;1306;99170;-73
2022/11/02 02:25:10;;;;;;;45.00;27.20;;;;;;;12.74;96.09;100399.54;124957;1308;99173;-76
2022/11/02 02:28:24;;;;;;;46.90;28.60;;;;;;;12.75;96.39;100393.76;125007;1290;98020;-73
2022/11/02 02:31:36;;;;;;;48.40;30.10;;;;;;;12.74;96.48;100395.48;124974;1307;99061;-76
2022/11/02 02:34:49;;;;;;;50.40;30.90;;;;;;;12.72;96.64;100393.48;124926;1312;99175;-74
2022/11/02 02:37:58;;;;;;;49.80;29.10;;;;;;;12.72;96.70;100400.16;124779;1299;99106;-74
2022/11/02 02:41:12;;;;;;;51.80;28.20;;;;;;;12.67;97.31;100400.83;125027;1297;98898;-74
2022/11/02 02:44:22;;;;;;;48.30;28.90;;;;;;;12.61;97.55;100395.09;124743;1295;175949;-74
2022/11/02 02:47:32;;;;;;;50.10;30.10;;;;;;;12.62;97.38;100394.46;124920;1306;98154;-73
2022/11/02 02:50:43;;;;;;;46.90;27.40;;;;;;;12.64;97.37;100397.36;124969;1306;99131;-76
2022/11/02 02:53:50;;;;;;;;;;;;;;;12.68;97.29;100396.81;125029;1297;98068;-75
2022/11/02 02:57:02;;;;;;;45.80;26.80;;;;;;;12.72;97.45;100400.34;124986;1305;99187;-77
2022/11/02 03:00:16;;;;;;;47.80;28.40;;;;;;;12.77;97.36;100407.81;125064;1297;99080;-75
2022/11/02 03:03:23;;;;;;;50.80;30.30;;;;;;;12.78;97.29;100409.48;124973;1296;98115;-74
2022/11/02 03:06:31;;;;;;;50.00;29.60;;;;;;;12.79;97.47;100411.04;124926;1297;99067;-74
2022/11/02 03:09:45;;;;;;;47.50;27.70;;;;;;;12.78;97.42;100415.59;124965;1310;98064;-74
2022/11/02 03:13:00;;;;;;;45.40;24.70;;;;;;;12.81;97.42;100416.19;124848;1297;98016;-74
2022/11/02 03:16:11;;;;;;;49.50;28.80;;;;;;;12.83;97.39;100414.09;124766;1299;98828;-75
2022/11/02 03:19:24;;;;;;;48.60;28.30;;;;;;;12.87;97.09;100410.48;125013;1303;98138;-74
2022/11/02 03:22:34;;;;;;;48.50;29.50;;;;;;;12.87;97.26;100409.23;124938;1305;98131;-75
2022/11/02 03:25:50;;;;;;;41.50;25.20;;;;;;;12.88;97.26;100413.19;124865;1306;99272;-74
2022/11/02 03:29:04;;;;;;;45.70;27.10;;;;;;;12.88;97.26;100415.17;124888;1302;98004;-74
2022/11/02 03:32:19;;;;;;;36.30;24.60;;;;;;;12.93;97.14;100419.16;124714;1299;99381;-74
2022/11/02 03:35:33;;;;;;;43.50;27.80;;;;;;;12.99;97.14;100419.61;124767;1295;98712;-74
2022/11/02 03:38:45;;;;;;;45.00;27.10;;;;;;;13.02;96.96;100416.53;124809;1299;99177;-74
2022/11/02 03:41:55;;;;;;;41.70;25.20;;;;;;;13.04;97.04;100419.95;124998;1305;99168;-75
2022/11/02 03:45:07;;;;;;;33.20;19.00;;;;;;;13.05;97.01;100413.36;124894;1296;98794;-75
2022/11/02 03:48:14;;;;;;;38.20;25.40;;;;;;;13.09;96.98;100419.73;124933;1289;99194;-76
2022/11/02 03:51:22;;;;;;;38.70;26.90;;;;;;;13.12;96.96;100417.15;124756;1305;99095;-76
2022/11/02 03:54:38;;;;;;;44.80;29.50;;;;;;;13.14;96.95;100417.42;124877;1289;98084;-76
2022/11/02 03:57:46;;;;;;;39.80;24.40;;;;;;;13.14;96.80;100418.13;125777;1296;98331;-78
2022/11/02 04:00:57;;;;;;;32.90;21.10;;;;;;;13.14;96.89;100423.11;125753;1306;98006;-79
2022/11/02 04:04:05;;;;;;;34.10;23.50;;;;;;;13.16;96.79;100428.48;126007;1297;98123;-77
2022/11/02 04:07:11;;;;;;;35.20;23.10;;;;;;;13.20;96.84;100430.86;125491;1306;98047;-76
2022/11/02 04:10:17;;;;;;;33.30;22.20;;;;;;;13.22;96.75;100435.45;125212;1297;98553;-77
2022/11/02 04:16:46;;;;;;;30.60;20.60;;;;;;;13.15;96.93;100442.67;125391;1297;98172;-78
2022/11/02 04:19:57;;;;;;;28.50;20.30;;;;;;;13.13;97.01;100444.17;125425;1297;98013;-77
2022/11/02 04:26:27;;;;;;;31.60;22.00;;;;;;;13.20;97.05;100440.57;125400;1296;99182;-78
2022/11/02 04:29:32;;;;;;;31.60;20.10;;;;;;;13.22;97.07;100443.59;125212;1299;98001;-78
2022/11/02 04:36:08;;;;;;;28.80;19.60;;;;;;;13.20;97.00;100445.55;125573;1302;98288;-81
2022/11/02 04:39:14;;;;;;;31.40;21.60;;;;;;;13.21;97.04;100442.55;126074;1301;99144;-79
2022/11/02 04:42:20;;;;;;;33.30;21.90;;;;;;;13.23;97.23;100449.73;125837;1296;98158;-77
2022/11/02 04:45:35;;;;;;;30.80;20.50;;;;;;;13.22;97.11;100450.34;125635;1311;98161;-77
2022/11/02 04:48:42;;;;;;;27.20;19.20;;;;;;;13.21;97.09;100452.80;125547;1305;98061;-76
2022/11/02 04:51:47;;;;;;;33.60;21.10;;;;;;;13.21;97.31;100454.20;125691;1306;98042;-77
2022/11/02 04:54:53;;;;;;;29.80;20.90;;;;;;;13.18;97.50;100449.70;125623;1313;99158;-77
2022/11/02 04:57:59;;;;;;;33.50;23.00;;;;;;;13.15;97.59;100448.90;125213;1296;98784;-77
2022/11/02 05:01:13;;;;;;;35.00;21.60;;;;;;;13.09;97.79;100450.27;125443;1302;99198;-77
2022/11/02 05:04:19;;;;;;;30.60;20.50;;;;;;;13.03;97.82;100450.76;125542;1306;98048;-77
2022/11/02 05:07:25;;;;;;;28.30;20.50;;;;;;;13.04;97.76;100451.15;125679;1306;98012;-77
2022/11/02 05:10:31;;;;;;;31.70;22.50;;;;;;;13.06;97.84;100456.70;125701;1297;99285;-78
2022/11/02 05:13:37;;;;;;;32.00;21.80;;;;;;;13.10;97.79;100456.77;125567;1302;98687;-77
2022/11/02 05:16:43;;;;;;;30.50;20.50;;;;;;;13.08;97.86;100457.16;125074;1296;99176;-76
2022/11/02 05:19:48;;;;;;;33.60;20.90;;;;;;;13.07;97.76;100459.61;125144;1306;98051;-76
2022/11/02 05:22:54;;;;;;;29.40;20.30;;;;;;;13.08;97.78;100463.93;125010;1306;98023;-78
2022/11/02 05:26:02;;;;;;;34.90;21.80;;;;;;;13.10;97.75;100467.29;124991;1303;99278;-76
2022/11/02 05:29:09;;;;;;;34.30;22.40;;;;;;;13.13;97.74;100468.40;125131;1296;98005;-74
2022/11/02 05:32:15;;;;;;;80.60;43.70;;;;;;;13.12;97.85;100465.88;125097;1296;99100;-73
2022/11/02 05:35:22;;;;;;;42.00;26.50;;;;;;;13.11;97.79;100467.59;125197;1306;98042;-77
2022/11/02 05:38:28;;;;;;;33.10;21.30;;;;;;;13.12;97.81;100471.37;125048;1296;99241;-75
2022/11/02 05:41:34;;;;;;;34.40;22.50;;;;;;;13.17;97.88;100473.77;124890;1306;99297;-75
2022/11/02 05:44:40;;;;;;;37.10;26.10;;;;;;;13.19;97.82;100477.61;125005;1297;98594;-74
2022/11/02 05:47:45;;;;;;;36.70;22.50;;;;;;;13.18;98.02;100477.41;124813;1297;97991;-73
2022/11/02 05:50:54;;;;;;;32.00;21.10;;;;;;;13.15;97.96;100482.30;124882;1289;98687;-74
2022/11/02 05:54:00;;;;;;;30.30;21.20;;;;;;;13.16;98.17;100485.75;124975;1296;98721;-75
2022/11/02 05:57:05;;;;;;;35.10;21.90;;;;;;;13.16;98.07;100486.72;124942;1299;99100;-75
2022/11/02 06:00:13;;;;;;;33.40;22.80;;;;;;;13.19;98.02;100485.55;124987;1304;99087;-74
2022/11/02 06:03:18;;;;;;;37.00;22.60;;;;;;;13.17;98.26;100487.30;124919;1296;98798;-74
2022/11/02 06:06:23;;;;;;;33.20;21.90;;;;;;;13.13;98.24;100493.75;124842;1306;98031;-74
2022/11/02 06:09:29;;;;;;;33.70;21.40;;;;;;;13.13;98.31;100494.45;125009;1297;98699;-74
2022/11/02 06:12:34;;;;;;;34.10;22.40;;;;;;;13.17;98.33;100498.40;124984;1299;99177;-74
2022/11/02 06:15:39;;;;;;;35.80;22.20;;;;;;;13.22;98.42;100502.98;124946;1304;99853;-73
2022/11/02 06:18:45;;;;;;;51.80;27.50;;;;;;;13.25;98.20;100512.87;125025;1299;98053;-74
2022/11/02 06:21:50;;;;;;;40.00;23.70;;;;;;;13.23;98.43;100513.80;125066;1306;98034;-76
2022/11/02 06:24:56;;;;;;;36.30;22.00;;;;;;;13.21;98.49;100513.99;124956;1296;98028;-76
2022/11/02 06:28:01;;;;;;;35.90;23.40;;;;;;;13.20;98.48;100518.56;125030;1296;99245;-76
2022/11/02 06:31:07;;;;;;;43.00;25.10;;;;;;;13.18;98.77;100518.67;125156;1289;99154;-74
2022/11/02 06:34:12;;;;;;;38.60;22.50;;;;;;;13.14;98.67;100521.18;125096;1306;98814;-73
2022/11/02 06:37:17;;;;;;;36.70;22.90;;;;;;;13.15;98.97;100525.77;124989;1289;98113;-72
2022/11/02 06:40:23;;;;;;;64.10;29.10;;;;;;;13.10;99.16;100530.91;125021;1306;99181;-75
2022/11/02 06:43:28;;;;;;;44.50;26.60;;;;;;;13.12;99.12;100530.34;125012;1306;99087;-74
2022/11/02 06:46:33;;;;;;;52.30;28.60;;;;;;;13.14;98.94;100530.11;125041;1297;99177;-75
2022/11/02 06:49:39;;;;;;;39.90;21.70;;;;;;;13.13;99.01;100532.36;125090;1306;99252;-74
2022/11/02 06:52:46;;;;;;;48.90;24.70;;;;;;;13.16;98.97;100531.56;124869;1312;98051;-73
2022/11/02 06:55:54;;;;;;;38.90;21.60;;;;;;;13.23;98.92;100531.35;125041;1297;98164;-74
2022/11/02 06:59:00;;;;;;;41.00;23.50;;;;;;;13.27;98.95;100531.26;124964;1293;98131;-74
2022/11/02 07:02:05;;;;;;;43.10;23.80;;;;;;;13.28;98.95;100528.58;124967;1297;99172;-75
2022/11/02 07:05:11;;;;;;;40.60;24.00;;;;;;;13.27;98.86;100533.15;124958;1302;98072;-74
2022/11/02 07:08:17;;;;;;;58.50;27.40;;;;;;;13.29;98.94;100534.66;124980;1296;99176;-74
2022/11/02 07:11:22;;;;;;;163.80;57.70;;;;;;;13.35;99.05;100542.20;124960;1296;98126;-74
2022/11/02 07:14:27;;;;;;;79.60;33.50;;;;;;;13.41;98.89;100543.02;124967;1309;98112;-74
2022/11/02 07:17:33;;;;;;;62.70;33.30;;;;;;;13.49;98.78;100541.27;124922;1293;101541;-74
2022/11/02 07:20:38;;;;;;;54.60;30.50;;;;;;;13.59;98.75;100541.44;124934;1289;98014;-74
2022/11/02 07:23:43;;;;;;;70.80;37.40;;;;;;;13.70;98.50;100542.75;125027;1306;99198;-74
2022/11/02 07:26:50;;;;;;;40.30;23.70;;;;;;;13.77;98.45;100545.40;124976;1298;98042;-74
2022/11/02 07:29:57;;;;;;;40.90;29.30;;;;;;;13.83;98.36;100541.96;125090;1306;98851;-74
2022/11/02 07:33:02;;;;;;;57.70;40.00;;;;;;;13.92;98.38;100537.98;125108;1298;99176;-74
2022/11/02 07:36:09;;;;;;;64.40;44.60;;;;;;;14.00;98.27;100535.55;125028;1306;98833;-76
2022/11/02 07:39:15;;;;;;;242.40;107.80;;;;;;;14.06;98.06;100534.73;125023;1306;98086;-74
2022/11/02 07:42:20;;;;;;;133.00;57.70;;;;;;;14.12;97.94;100538.18;124929;1293;98889;-74
2022/11/02 07:45:29;;;;;;;145.00;64.70;;;;;;;14.19;97.93;100536.40;124948;1305;99180;-73
2022/11/02 07:48:35;;;;;;;44.60;24.70;;;;;;;14.24;97.15;100536.09;124993;1302;98504;-74
2022/11/02 07:51:41;;;;;;;46.20;29.90;;;;;;;14.25;96.89;100535.19;124969;1296;99171;-75
2022/11/02 07:54:46;;;;;;;66.30;41.90;;;;;;;14.28;96.67;100527.86;124954;1297;98044;-73
2022/11/02 07:57:59;;;;;;;31.30;22.70;;;;;;;14.28;96.17;100530.88;124979;1296;99139;-73
2022/11/02 08:01:04;;;;;;;28.80;19.60;;;;;;;14.27;96.02;100530.08;125025;1296;99261;-73
2022/11/02 08:04:10;;;;;;;55.20;28.40;;;;;;;14.27;95.43;100529.20;124939;1296;99141;-74
2022/11/02 08:07:15;;;;;;;27.40;18.20;;;;;;;14.39;96.35;100531.97;124899;1297;98800;-74
2022/11/02 08:10:20;;;;;;;29.10;20.60;;;;;;;14.54;96.23;100531.79;124913;1297;98131;-73
2022/11/02 08:13:26;;;;;;;38.40;25.50;;;;;;;14.67;95.30;100533.67;124926;1305;99202;-75
2022/11/02 08:16:31;;;;;;;31.80;21.30;;;;;;;14.72;95.24;100532.95;124959;1294;98795;-75
2022/11/02 08:19:36;;;;;;;77.30;48.90;;;;;;;14.82;95.35;100529.29;125010;1307;99176;-75
2022/11/02 08:22:42;;;;;;;363.80;116.70;;;;;;;14.93;95.00;100525.05;124951;1299;98052;-75
2022/11/02 08:25:49;;;;;;;192.10;73.90;;;;;;;15.02;94.61;100521.04;124962;1309;98129;-74
2022/11/02 08:28:55;;;;;;;236.20;97.70;;;;;;;15.09;94.53;100523.39;125015;1296;98038;-74
2022/11/02 08:32:00;;;;;;;51.30;30.30;;;;;;;15.04;92.35;100525.43;124993;1299;98012;-74
2022/11/02 08:35:07;;;;;;;60.90;40.00;;;;;;;14.94;93.86;100518.89;124939;1295;98779;-75
2022/11/02 08:38:13;;;;;;;57.20;41.70;;;;;;;15.04;94.32;100518.20;125039;1312;99172;-74
2022/11/02 08:41:18;;;;;;;30.60;22.90;;;;;;;15.17;94.15;100516.25;124912;1296;98839;-74
2022/11/02 08:44:23;;;;;;;42.60;25.50;;;;;;;15.21;93.89;100518.04;125018;1296;98741;-74
2022/11/02 08:47:29;;;;;;;52.10;32.00;;;;;;;15.29;93.46;100515.88;125055;1305;99196;-74
2022/11/02 08:50:35;;;;;;;46.20;26.60;;;;;;;15.35;92.83;100517.64;124961;1297;98674;-74
2022/11/02 08:53:41;;;;;;;46.60;28.50;;;;;;;15.33;92.41;100515.31;124948;1306;98130;-74
2022/11/02 08:56:46;;;;;;;26.40;17.80;;;;;;;15.34;91.65;100517.70;124951;1296;98045;-74
2022/11/02 08:59:51;;;;;;;21.10;15.40;;;;;;;15.26;91.28;100517.44;125007;1309;98454;-74
2022/11/02 09:03:02;;;;;;;23.20;15.50;;;;;;;15.29;92.00;100517.33;124927;1306;99167;-76
2022/11/02 09:06:08;;;;;;;25.00;16.10;;;;;;;15.26;91.49;100519.80;125046;1299;98804;-74
2022/11/02 09:09:13;;;;;;;23.70;16.20;;;;;;;15.22;90.80;100523.69;124913;1305;98694;-75
2022/11/02 09:12:19;;;;;;;21.20;14.40;;;;;;;15.18;91.28;100525.61;124964;1297;98135;-74
2022/11/02 09:15:25;;;;;;;23.30;14.90;;;;;;;15.07;91.19;100521.95;124955;1297;99329;-73
2022/11/02 09:18:30;;;;;;;20.70;14.40;;;;;;;15.09;91.40;100523.24;124967;1296;98087;-73
2022/11/02 09:21:36;;;;;;;18.70;13.40;;;;;;;15.14;91.74;100525.38;124974;1310;99071;-73
2022/11/02 09:24:42;;;;;;;23.10;15.70;;;;;;;15.24;91.83;100518.64;124998;1297;98802;-73
2022/11/02 09:27:52;;;;;;;19.80;14.90;;;;;;;15.31;91.02;100517.06;124923;1292;99094;-76
2022/11/02 09:30:57;;;;;;;22.80;14.90;;;;;;;15.32;91.49;100515.42;124909;1302;99211;-73
2022/11/02 09:34:03;;;;;;;25.00;15.30;;;;;;;15.42;91.11;100514.84;124978;1296;98016;-73
2022/11/02 09:37:08;;;;;;;20.10;14.10;;;;;;;15.47;90.48;100515.64;124878;1306;99103;-73
2022/11/02 09:40:18;;;;;;;22.90;15.30;;;;;;;15.48;90.26;100514.95;124932;1296;98670;-73
2022/11/02 09:43:35;;;;;;;24.90;17.60;;;;;;;15.46;89.53;100519.80;125064;1299;98093;-74
2022/11/02 09:46:44;;;;;;;21.00;15.80;;;;;;;15.42;89.62;100521.77;124886;1313;98694;-73
2022/11/02 09:49:50;;;;;;;25.80;17.60;;;;;;;15.49;90.43;100517.49;125050;1296;99094;-73
2022/11/02 09:53:00;;;;;;;22.50;16.10;;;;;;;15.62;90.05;100520.30;124897;1296;98017;-75
2022/11/02 09:56:07;;;;;;;22.00;15.50;;;;;;;15.67;89.85;100517.06;124873;1289;98015;-76
2022/11/02 09:59:17;;;;;;;21.90;15.30;;;;;;;15.76;89.75;100516.80;125009;1292;99203;-74
2022/11/02 10:02:31;;;;;;;22.90;16.30;;;;;;;15.75;89.09;100514.04;124870;1296;98030;-75
2022/11/02 10:05:42;;;;;;;16.70;11.40;;;;;;;15.74;89.48;100511.09;125012;1296;98099;-74
2022/11/02 10:08:56;;;;;;;19.50;13.10;;;;;;;15.73;89.23;100516.20;124943;1297;98216;-73
2022/11/02 10:12:09;;;;;;;18.10;11.80;;;;;;;15.72;89.27;100516.63;125029;1297;98803;-74
2022/11/02 10:15:20;;;;;;;19.90;11.50;;;;;;;15.80;89.47;100515.04;124969;1299;99190;-74
2022/11/02 10:18:28;;;;;;;17.10;12.10;;;;;;;15.90;89.19;100512.98;124879;1296;98429;-74
2022/11/02 10:21:38;;;;;;;16.20;11.30;;;;;;;15.99;89.14;100511.67;124924;1313;99116;-74
2022/11/02 10:24:45;;;;;;;20.00;12.00;;;;;;;16.07;88.87;100509.98;124901;1302;99172;-73
2022/11/02 10:27:56;;;;;;;21.50;13.40;;;;;;;16.12;88.71;100506.61;125003;1289;98111;-73
2022/11/02 10:31:03;;;;;;;16.80;11.90;;;;;;;16.16;88.63;100511.55;124972;1293;98037;-75
2022/11/02 10:34:22;;;;;;;16.10;11.90;;;;;;;16.20;88.12;100509.73;124942;1296;99189;-73
2022/11/02 10:37:42;;;;;;;17.50;11.00;;;;;;;16.20;88.24;100511.76;125045;1299;98101;-74
2022/11/02 10:41:02;;;;;;;19.80;11.90;;;;;;;16.24;87.70;100509.86;125070;1306;99188;-74
2022/11/02 10:44:24;;;;;;;15.00;10.80;;;;;;;16.24;87.61;100508.95;125063;1313;99249;-74
2022/11/02 10:47:34;;;;;;;15.80;11.70;;;;;;;16.26;87.59;100514.62;124992;1297;98808;-73
2022/11/02 10:50:47;;;;;;;14.00;11.40;;;;;;;16.15;86.89;100512.80;125010;1297;99098;-73
2022/11/02 10:53:54;;;;;;;17.80;11.70;;;;;;;16.03;85.53;100512.98;124906;1295;98124;-73
2022/11/02 10:57:00;;;;;;;18.20;13.20;;;;;;;15.81;85.42;100507.89;124956;1304;99072;-75
2022/11/02 11:00:27;;;;;;;16.60;12.20;;;;;;;15.61;84.76;100507.57;125016;1298;98058;-75
2022/11/02 11:03:33;;;;;;;18.40;12.80;;;;;;;15.52;85.56;100510.58;125054;1314;99060;-73
2022/11/02 11:06:41;;;;;;;17.70;12.40;;;;;;;15.52;85.87;100502.61;125045;1297;99164;-73
2022/11/02 11:09:52;;;;;;;16.60;12.60;;;;;;;15.40;81.96;100507.44;125016;1306;98223;-73
2022/11/02 11:12:56;;;;;;;;;;;;;;;15.22;83.35;100500.52;125041;1306;98039;-74
2022/11/02 11:16:03;;;;;;;16.10;13.20;;;;;;;15.12;83.26;100495.86;124852;1305;98112;-74
2022/11/02 11:19:22;;;;;;;14.90;11.60;;;;;;;15.09;84.30;100506.73;124954;1304;98716;-73
2022/11/02 11:22:29;;;;;;;15.50;11.60;;;;;;;15.07;83.78;100519.21;124958;1303;98049;-73
2022/11/02 11:25:35;;;;;;;13.70;11.30;;;;;;;15.11;84.73;100516.92;125006;1296;98097;-74
2022/11/02 11:28:54;;;;;;;17.00;12.30;;;;;;;15.12;83.87;100523.27;125021;1297;99087;-74
2022/11/02 11:32:01;;;;;;;17.10;12.60;;;;;;;15.03;83.03;100522.50;124980;1297;99056;-73
2022/11/02 11:35:16;;;;;;;15.40;12.10;;;;;;;14.90;83.78;100517.09;125026;1298;98039;-74
2022/11/02 11:38:25;;;;;;;15.70;12.70;;;;;;;14.84;83.53;100517.48;124967;1306;99150;-73
2022/11/02 11:41:31;;;;;;;17.40;14.10;;;;;;;14.84;84.44;100511.52;125006;1295;98024;-73
2022/11/02 11:44:37;;;;;;;17.00;13.30;;;;;;;14.87;84.34;100507.97;124989;1295;99201;-74
2022/11/02 11:47:44;;;;;;;15.90;12.30;;;;;;;14.89;84.12;100509.04;124849;1305;99260;-73
2022/11/02 11:50:50;;;;;;;15.30;11.30;;;;;;;14.90;84.28;100507.39;125005;1296;98676;-73
2022/11/02 11:54:19;;;;;;;14.50;11.20;;;;;;;14.98;84.74;100504.27;125064;1306;99104;-73
2022/11/02 11:57:30;;;;;;;15.20;12.00;;;;;;;15.11;84.55;100499.65;124951;1296;98810;-74
2022/11/02 12:00:35;;;;;;;14.70;12.10;;;;;;;15.15;83.41;100493.93;125027;1296;98147;-74
2022/11/02 12:03:56;;;;;;;16.10;12.40;;;;;;;15.14;83.84;100493.23;124999;1306;99007;-74
2022/11/02 12:07:29;;;;;;;16.70;11.90;;;;;;;15.18;84.13;100488.87;124891;1298;98359;-75
2022/11/02 12:10:49;;;;;;;15.70;12.20;;;;;;;15.21;83.93;100486.23;125039;1302;98779;-74
2022/11/02 12:14:10;;;;;;;13.60;10.90;;;;;;;15.19;84.11;100485.86;124929;1296;98670;-73
2022/11/02 12:17:33;;;;;;;14.30;11.30;;;;;;;15.20;84.16;100482.90;125005;1289;98000;-74
2022/11/02 12:20:50;;;;;;;15.90;10.70;;;;;;;15.18;83.76;100478.41;124895;1306;98797;-74
2022/11/02 12:24:15;;;;;;;15.00;11.50;;;;;;;15.20;83.65;100472.73;125014;1297;98127;-74
2022/11/02 12:27:32;;;;;;;15.00;11.60;;;;;;;15.22;83.90;100470.67;125002;1296;98122;-74
2022/11/02 12:30:53;;;;;;;15.30;11.70;;;;;;;15.24;83.88;100468.27;124886;1307;99282;-74
2022/11/02 12:34:19;;;;;;;13.30;10.70;;;;;;;15.26;84.11;100465.29;124956;1296;98689;-74
2022/11/02 12:37:33;;;;;;;16.50;10.70;;;;;;;15.28;83.91;100466.52;124868;1296;98114;-74
2022/11/02 12:40:51;;;;;;;14.10;9.80;;;;;;;15.27;83.86;100463.47;124963;1297;98021;-74
2022/11/02 12:44:06;;;;;;;12.50;9.20;;;;;;;15.25;83.58;100461.33;124952;1297;98045;-74
2022/11/02 12:47:22;;;;;;;12.60;9.40;;;;;;;15.24;83.31;100466.28;124975;1307;99168;-74
2022/11/02 12:50:37;;;;;;;13.70;10.00;;;;;;;15.26;83.14;100469.63;124965;1289;98368;-74
2022/11/02 12:53:48;;;;;;;16.70;11.40;;;;;;;15.27;83.13;100474.18;124853;1297;98775;-74
2022/11/02 12:56:55;;;;;;;17.50;11.70;;;;;;;15.27;82.95;100474.98;124958;1302;98418;-74
2022/11/02 13:00:05;;;;;;;16.50;11.00;;;;;;;15.24;82.88;100475.63;124913;1302;99221;-74
2022/11/02 13:03:23;;;;;;;14.80;10.60;;;;;;;15.22;82.85;100473.16;125176;1297;98010;-74
2022/11/02 13:06:35;;;;;;;16.00;10.30;;;;;;;15.22;82.92;100475.91;125007;1289;98687;-74
2022/11/02 13:09:47;;;;;;;13.20;9.50;;;;;;;15.21;83.14;100475.94;124940;1296;98093;-74
2022/11/02 13:12:56;;;;;;;15.60;10.00;;;;;;;15.18;82.81;100473.61;124888;1297;98008;-74
2022/11/02 13:16:04;;;;;;;16.30;10.40;;;;;;;15.17;83.00;100476.81;124971;1305;98106;-75
2022/11/02 13:19:16;;;;;;;15.20;9.50;;;;;;;15.18;82.98;100469.15;124900;1305;99215;-73
2022/11/02 13:22:27;;;;;;;12.80;9.00;;;;;;;15.21;82.84;100465.19;124929;1305;99117;-73
2022/11/02 13:25:36;;;;;;;14.80;9.10;;;;;;;15.24;82.79;100468.09;124916;1299;99191;-73
2022/11/02 13:28:47;;;;;;;13.90;9.60;;;;;;;15.25;82.68;100468.90;124967;1304;99173;-74
2022/11/02 13:31:58;;;;;;;14.90;9.70;;;;;;;15.25;82.83;100471.71;124915;1299;97992;-74
2022/11/02 13:35:12;;;;;;;9.50;5.80;;;;;;;15.20;81.05;100477.13;124997;1297;98413;-73
2022/11/02 13:38:31;;;;;;;13.50;7.40;;;;;;;15.09;81.22;100475.14;124937;1304;98122;-74
2022/11/02 13:41:53;;;;;;;21.20;8.30;;;;;;;15.04;80.90;100475.56;124991;1297;98770;-73
2022/11/02 13:45:37;;;;;;;9.50;5.00;;;;;;;15.00;81.01;100475.00;124980;1304;98118;-74
2022/11/02 13:48:53;;;;;;;65.40;20.90;;;;;;;14.98;80.32;100470.61;125112;1297;99085;-74
2022/11/02 13:52:05;;;;;;;185.40;92.20;;;;;;;15.00;80.26;100471.81;125079;1297;98798;-74
2022/11/02 13:55:19;;;;;;;44.80;25.40;;;;;;;15.00;79.93;100471.27;124952;1295;98107;-74
2022/11/02 13:58:27;;;;;;;23.70;13.30;;;;;;;14.98;79.94;100473.14;125037;1297;98808;-73
2022/11/02 14:01:36;;;;;;;21.10;11.30;;;;;;;14.95;79.83;100479.35;125013;1296;98160;-73
2022/11/02 14:04:44;;;;;;;11.80;7.90;;;;;;;14.87;78.49;100476.10;124959;1306;98146;-73
2022/11/02 14:07:50;;;;;;;8.70;6.00;;;;;;;14.76;78.76;100476.60;125096;1305;99176;-73
2022/11/02 14:11:26;;;;;;;9.70;5.70;;;;;;;14.67;78.67;100482.31;125067;1307;98056;-73
2022/11/02 14:14:31;;;;;;;11.10;7.00;;;;;;;14.56;78.86;100480.68;124996;1296;99237;-73
2022/11/02 14:18:02;;;;;;;13.20;7.30;;;;;;;14.46;78.72;100481.21;124923;1299;99172;-73
2022/11/02 14:21:44;;;;;;;10.10;6.10;;;;;;;14.34;78.81;100478.27;125061;1305;99187;-74